Ketchikan International Airport
PAKT : rendu visible

Aérodrome :











RETROUVEZ-NOUS SUR...

 
LOGIN :

S'inscrire | Disclaimer

   EN    FR    IT 

 









Légende :    VFR   VFR Marginal   IFR   IFR Intensif   IFR Très Intensif
Visi : 
Plafond : 
>= 8 km
>= 3000ft
5 à 8 km
1000 à 3000 ft
1500m à 5 km
500 à 1000 ft
800 à 1500m
200 à 500 ft
< 800m
< 200 ft
Symboles :   Orages  Brouillard  Fortes neiges  Fortes précipitations  Vent > 20 kt






- Altitude de l'aérodrome : 89 ft
- Code IATA : KTN


PAKT - Ketchikan International

DERNIER METAR :
  • 050053Z 33009KT 10SM CLR 07/M05 A2990 RMK SLP125 HARBOR WIND 30015KT T00671050 VIA AUTODIAL

METARs EXPIRÉS :
  • 042353Z 34012KT 10SM CLR 06/M04 A2991 RMK SLP127 HARBOR WIND 28015KT T00611044 10067 20033 56016 VIA AUTODIAL
  • 042253Z 34013KT 10SM CLR 07/M04 A2991 RMK SLP130 T00671039 VIA AUTODIAL
  • 042153Z 34010KT 10SM CLR 06/M04 A2993 RMK SLP138 HARBOR WIND 30015KT T00561039 VIA AUTODIAL

TAF PAKT
Valide du 05 à 00h jusqu'au 06 à 00h UTC


042332Z 0500/0524 33010KT P6SM SKC
FM050400 31004KT P6SM SKC
FM051500 33010KT P6SM SKC AMD LTD TO CLD VIS AND WIND 0506/0515



MET'MAP, la Météo Aéronautique d'un coup d'oeil ! - Copyright ORBIFLY Décembre 2007 - Disclaimer

ORBIFLY MET'MAP TEAM :

Programmation & Développement : Alexandra Zaïnal
Sur une idée originale de : Baudouin d'Aumeries
Assistance à la programmation : Marc-Olivier Méhu
Soutien technique & logistique : Manuel Goepfert

Contact : metmap@orbifly.com




SOURCES & CREDITS :

   NOAA       Earth
Advisory